Terminal Aerodrome Forecast
Issued by NWS Spokane, WA

Home | Current Version | Previous Version | Text Only | Print | Product List | Glossary On
Versions: 1 2 3 4 5 6 7 8 9 10 11 12 13 14 15 16 17 18 19 20 21 22 23 24
000
FTUS46 KOTX 031724
TAFLWS
TAF
KLWS 031724Z 0318/0418 VRB03KT P6SM FEW250
     FM032100 33006KT P6SM FEW250
     FM040500 20003KT P6SM SKC=

USA.gov is the U.S. government's official web portal to all federal, state and local government web resources and services.